Time;durP1;ratioP1;P1;durP2;ratioP2;P2;SDS_P1;SDS_P2;PMS_P1;PMS_P2;Temp;Humidity;BMP_temperature;BMP_pressure;BME280_temperature;BME280_humidity;BME280_pressure;Samples;Min_cycle;Max_cycle;Signal;HPM_P1;HPM_P2
2023/02/13 00:00:38;;;;;;;24.10;15.57;;;;;;;;;;5135276;27;21035;-61
2023/02/13 00:03:05;;;;;;;22.30;14.67;;;;;;;;;;5135464;27;20781;-61
2023/02/13 00:05:32;;;;;;;21.37;14.60;;;;;;;;;;5134860;27;20445;-61
2023/02/13 00:08:00;;;;;;;23.60;14.60;;;;;;;;;;5135270;27;20440;-61
2023/02/13 00:10:27;;;;;;;24.33;15.47;;;;;;;;;;5135205;27;20467;-61
2023/02/13 00:12:54;;;;;;;23.60;14.80;;;;;;;;;;5135013;27;20959;-61
2023/02/13 00:15:21;;;;;;;27.10;15.80;;;;;;;;;;5134973;27;20445;-61
2023/02/13 00:17:48;;;;;;;25.37;16.17;;;;;;;;;;5135063;27;20488;-61
2023/02/13 00:20:15;;;;;;;22.50;14.13;;;;;;;;;;5135103;27;20540;-61
2023/02/13 00:22:42;;;;;;;27.40;16.03;;;;;;;;;;5134979;27;20452;-61
2023/02/13 00:25:10;;;;;;;25.37;16.20;;;;;;;;;;5134771;27;20456;-61
2023/02/13 00:27:37;;;;;;;26.07;15.50;;;;;;;;;;5134684;27;20558;-61
2023/02/13 00:30:04;;;;;;;22.63;14.20;;;;;;;;;;5134714;27;20449;-61
2023/02/13 00:32:31;;;;;;;19.30;14.47;;;;;;;;;;5134828;27;20452;-61
2023/02/13 00:34:58;;;;;;;22.27;14.77;;;;;;;;;;5134882;27;20449;-60
2023/02/13 00:37:26;;;;;;;23.93;15.70;;;;;;;;;;5134606;27;20445;-61
2023/02/13 00:39:53;;;;;;;25.70;16.77;;;;;;;;;;5134679;27;20529;-61
2023/02/13 00:42:22;;;;;;;24.67;15.47;;;;;;;;;;5134451;27;20445;-61
2023/02/13 00:44:50;;;;;;;26.43;15.00;;;;;;;;;;5134683;27;20469;-60
2023/02/13 00:47:16;;;;;;;28.00;15.60;;;;;;;;;;5134618;27;20453;-61
2023/02/13 00:49:43;;;;;;;20.93;15.17;;;;;;;;;;5134508;27;20487;-61
2023/02/13 00:52:10;;;;;;;21.37;14.27;;;;;;;;;;5134443;27;20443;-61
2023/02/13 00:54:37;;;;;;;22.10;15.20;;;;;;;;;;5134274;27;20445;-61
2023/02/13 00:57:04;;;;;;;20.90;15.40;;;;;;;;;;5134191;27;20440;-61
2023/02/13 00:59:33;;;;;;;17.90;12.60;;;;;;;;;;5134336;27;20476;-61
2023/02/13 01:02:00;;;;;;;18.50;13.67;;;;;;;;;;5134372;27;20452;-61
2023/02/13 01:04:27;;;;;;;18.30;12.83;;;;;;;;;;5134280;27;20536;-61
2023/02/13 01:06:53;;;;;;;16.10;11.93;;;;;;;;;;5134132;27;20544;-61
2023/02/13 01:09:20;;;;;;;17.87;12.83;;;;;;;;;;5134094;27;21100;-61
2023/02/13 01:11:47;;;;;;;16.77;11.70;;;;;;;;;;5134100;27;20940;-61
2023/02/13 01:14:14;;;;;;;13.60;10.40;;;;;;;;;;5134201;27;20451;-60
2023/02/13 01:16:42;;;;;;;15.07;10.50;;;;;;;;;;5133263;27;20438;-61
2023/02/13 01:19:09;;;;;;;13.33;8.73;;;;;;;;;;5134098;27;20984;-61
2023/02/13 01:21:36;;;;;;;10.07;7.10;;;;;;;;;;5134014;27;20445;-61
2023/02/13 01:24:04;;;;;;;12.00;8.27;;;;;;;;;;5133780;28;20532;-61
2023/02/13 01:26:31;;;;;;;7.53;6.30;;;;;;;;;;5134145;28;20445;-61
2023/02/13 01:28:58;;;;;;;13.17;6.80;;;;;;;;;;5134053;28;20884;-61
2023/02/13 01:31:25;;;;;;;9.20;6.70;;;;;;;;;;5134012;28;20445;-61
2023/02/13 01:33:56;;;;;;;7.77;5.63;;;;;;;;;;5133970;28;20795;-61
2023/02/13 01:36:23;;;;;;;6.70;5.17;;;;;;;;;;5133866;28;20799;-61
2023/02/13 01:38:53;;;;;;;8.40;6.27;;;;;;;;;;5134002;28;20483;-61
2023/02/13 01:41:19;;;;;;;5.47;4.47;;;;;;;;;;5133974;28;20445;-60
2023/02/13 01:43:48;;;;;;;7.23;4.90;;;;;;;;;;5133903;28;20449;-61
2023/02/13 01:46:16;;;;;;;5.37;3.60;;;;;;;;;;5133576;28;21068;-61
2023/02/13 01:48:43;;;;;;;4.30;3.30;;;;;;;;;;5133760;28;20954;-61
2023/02/13 01:51:13;;;;;;;4.00;3.40;;;;;;;;;;5133719;28;20451;-60
2023/02/13 01:53:41;;;;;;;7.27;3.73;;;;;;;;;;5133825;28;20655;-61
2023/02/13 01:56:11;;;;;;;4.63;3.37;;;;;;;;;;5133759;28;20445;-60
2023/02/13 01:58:40;;;;;;;3.83;2.90;;;;;;;;;;5133671;28;20571;-61
2023/02/13 02:01:09;;;;;;;3.10;2.40;;;;;;;;;;5133710;28;20453;-61
2023/02/13 02:03:37;;;;;;;4.10;3.00;;;;;;;;;;5133545;28;20449;-61
2023/02/13 02:06:05;;;;;;;3.40;2.70;;;;;;;;;;5133786;28;20531;-61
2023/02/13 02:08:35;;;;;;;5.33;3.10;;;;;;;;;;5133654;28;20445;-61
2023/02/13 02:11:06;;;;;;;2.97;2.77;;;;;;;;;;5133572;28;20453;-61
2023/02/13 02:13:33;;;;;;;2.40;2.20;;;;;;;;;;5133500;28;20455;-61
2023/02/13 02:16:00;;;;;;;2.40;2.20;;;;;;;;;;5133364;28;20452;-60
2023/02/13 02:18:27;;;;;;;4.40;2.17;;;;;;;;;;5133610;28;20469;-60
2023/02/13 02:21:08;;;;;;;3.17;2.27;;;;;;;;;;5133555;28;20804;-60
2023/02/13 02:23:54;;;;;;;2.67;2.03;;;;;;;;;;5133468;28;20884;-60
2023/02/13 02:26:31;;;;;;;3.40;2.23;;;;;;;;;;5133357;27;20944;-61
2023/02/13 02:29:15;;;;;;;1.87;1.77;;;;;;;;;;5137425;27;20441;-60
2023/02/13 02:31:57;;;;;;;4.03;2.07;;;;;;;;;;5137221;27;20455;-61
2023/02/13 02:34:30;;;;;;;5.70;1.90;;;;;;;;;;5137095;27;20445;-61
2023/02/13 02:37:05;;;;;;;4.23;2.83;;;;;;;;;;5137016;27;20451;-61
2023/02/13 02:39:37;;;;;;;2.47;1.80;;;;;;;;;;5137015;27;20563;-60
2023/02/13 02:42:10;;;;;;;1.90;1.80;;;;;;;;;;5137069;27;20449;-61
2023/02/13 02:44:42;;;;;;;2.23;2.00;;;;;;;;;;5136798;27;20469;-61
2023/02/13 02:50:12;;;;;;;1.87;1.77;;;;;;;;;;5060116;27;20445;-61
2023/02/13 02:52:43;;;;;;;3.07;2.20;;;;;;;;;;5136742;27;20441;-61
2023/02/13 02:55:14;;;;;;;1.93;1.73;;;;;;;;;;5136767;27;20808;-60
2023/02/13 03:06:12;;;;;;;3.57;2.60;;;;;;;;;;5136535;27;20662;-60
2023/02/13 03:14:10;;;;;;;3.10;2.80;;;;;;;;;;5136330;27;20436;-61
2023/02/13 03:22:24;;;;;;;3.90;2.70;;;;;;;;;;5136228;27;20890;-61
2023/02/13 03:24:54;;;;;;;2.63;2.43;;;;;;;;;;5136022;27;20451;-61
2023/02/13 03:30:14;;;;;;;3.93;2.47;;;;;;;;;;5134940;27;20437;-61
2023/02/13 03:32:46;;;;;;;3.93;2.33;;;;;;;;;;5135974;27;20815;-61
2023/02/13 03:38:09;;;;;;;3.87;3.20;;;;;;;;;;5135542;27;20460;-60
2023/02/13 03:41:17;;;;;;;3.70;3.40;;;;;;;;;;5135342;27;20516;-60
2023/02/13 03:43:30;;;;;;;3.17;2.87;;;;;;;;;;5135497;27;20498;-61
2023/02/13 03:45:57;;;;;;;3.30;3.00;;;;;;;;;;5135517;27;20473;-61
2023/02/13 03:51:14;;;;;;;4.80;3.67;;;;;;;;;;5135593;27;20453;-61
2023/02/13 03:53:42;;;;;;;4.80;4.30;;;;;;;;;;5135547;27;20796;-61
2023/02/13 03:59:15;;;;;;;3.97;3.67;;;;;;;;;;5135579;27;20838;-60
2023/02/13 04:01:45;;;;;;;3.87;3.50;;;;;;;;;;5135409;27;20491;-61
2023/02/13 04:04:14;;;;;;;4.73;4.10;;;;;;;;;;5135273;27;20812;-60
2023/02/13 04:06:47;;;;;;;3.90;3.60;;;;;;;;;;5135289;27;20863;-61
2023/02/13 04:09:15;;;;;;;3.30;3.00;;;;;;;;;;5135444;27;20449;-61
2023/02/13 04:11:45;;;;;;;3.80;3.30;;;;;;;;;;5135218;27;20881;-61
2023/02/13 04:14:16;;;;;;;3.40;3.07;;;;;;;;;;5135015;27;20445;-60
2023/02/13 04:16:44;;;;;;;3.60;2.83;;;;;;;;;;5135116;27;20452;-60
2023/02/13 04:19:11;;;;;;;2.87;2.67;;;;;;;;;;5134860;27;20481;-61
2023/02/13 04:21:39;;;;;;;3.30;3.00;;;;;;;;;;5135127;27;20445;-61
2023/02/13 04:24:09;;;;;;;3.73;2.80;;;;;;;;;;5134867;27;20449;-62
2023/02/13 04:26:38;;;;;;;3.00;2.63;;;;;;;;;;5134451;27;20532;-61
2023/02/13 04:29:05;;;;;;;4.97;3.43;;;;;;;;;;5134284;27;20460;-61
2023/02/13 04:31:32;;;;;;;3.40;2.90;;;;;;;;;;5134194;27;20544;-60
2023/02/13 04:33:59;;;;;;;4.77;3.87;;;;;;;;;;5134448;27;20444;-60
2023/02/13 04:36:26;;;;;;;4.20;3.70;;;;;;;;;;5134426;27;20449;-61
2023/02/13 04:38:53;;;;;;;4.30;3.87;;;;;;;;;;5134150;27;20551;-61
2023/02/13 04:41:21;;;;;;;3.47;2.90;;;;;;;;;;5134119;27;20531;-60
2023/02/13 04:43:51;;;;;;;3.50;3.20;;;;;;;;;;5134048;27;20547;-61
2023/02/13 04:46:18;;;;;;;2.73;2.53;;;;;;;;;;5133765;27;20473;-61
2023/02/13 04:48:45;;;;;;;3.77;3.47;;;;;;;;;;5134038;27;20540;-61
2023/02/13 04:51:12;;;;;;;3.93;3.63;;;;;;;;;;5133906;27;20887;-61
2023/02/13 04:53:38;;;;;;;3.97;3.67;;;;;;;;;;5133921;27;20444;-60
2023/02/13 04:56:05;;;;;;;3.50;3.20;;;;;;;;;;5133895;27;20536;-60
2023/02/13 04:58:34;;;;;;;3.80;3.50;;;;;;;;;;5133762;27;20534;-60
2023/02/13 05:01:02;;;;;;;4.10;3.80;;;;;;;;;;5133912;27;20433;-61
2023/02/13 05:03:29;;;;;;;3.37;3.07;;;;;;;;;;5133670;27;20964;-61
2023/02/13 05:05:55;;;;;;;4.57;3.33;;;;;;;;;;5133784;27;20539;-61
2023/02/13 05:08:22;;;;;;;4.87;4.47;;;;;;;;;;5133730;27;20441;-60
2023/02/13 05:10:49;;;;;;;7.80;4.93;;;;;;;;;;5133673;27;20459;-61
2023/02/13 05:13:20;;;;;;;3.53;3.23;;;;;;;;;;5133554;27;20448;-61
2023/02/13 05:15:51;;;;;;;3.23;2.93;;;;;;;;;;5133749;27;20808;-60
2023/02/13 05:18:18;;;;;;;5.10;4.60;;;;;;;;;;5133678;27;20481;-61
2023/02/13 05:23:21;;;;;;;3.90;3.53;;;;;;;;;;5133516;27;20481;-60
2023/02/13 05:23:31;;;;;;;6.20;5.17;;;;;;;;;;5133363;27;20781;-61
2023/02/13 05:25:58;;;;;;;5.30;4.80;;;;;;;;;;5133650;28;20489;-61
2023/02/13 05:31:11;;;;;;;5.93;5.33;;;;;;;;;;5133422;28;20479;-61
2023/02/13 05:33:38;;;;;;;6.60;5.90;;;;;;;;;;5133424;28;20449;-60
2023/02/13 05:36:05;;;;;;;6.40;5.80;;;;;;;;;;5133211;28;20451;-61
2023/02/13 05:38:32;;;;;;;6.00;5.40;;;;;;;;;;5133828;28;20459;-61
2023/02/13 05:40:59;;;;;;;6.20;5.40;;;;;;;;;;5133447;28;20567;-61
2023/02/13 05:43:26;;;;;;;7.43;6.63;;;;;;;;;;5133394;28;20457;-61
2023/02/13 05:46:01;;;;;;;6.60;5.90;;;;;;;;;;5133210;28;20473;-61
2023/02/13 05:48:29;;;;;;;7.67;6.53;;;;;;;;;;5133264;28;20455;-60
2023/02/13 05:50:56;;;;;;;6.50;5.57;;;;;;;;;;5133237;28;20452;-61
2023/02/13 05:53:23;;;;;;;46.03;30.27;;;;;;;;;;5133090;28;20471;-61
2023/02/13 05:55:51;;;;;;;12.60;10.50;;;;;;;;;;5133317;28;20452;-61
2023/02/13 05:58:18;;;;;;;9.70;8.00;;;;;;;;;;5133208;28;20445;-60
2023/02/13 06:00:45;;;;;;;7.67;6.70;;;;;;;;;;5133006;28;20481;-61
2023/02/13 06:03:12;;;;;;;7.60;6.70;;;;;;;;;;5135809;27;20963;-61
2023/02/13 06:05:40;;;;;;;8.67;6.97;;;;;;;;;;5137287;27;20532;-61
2023/02/13 06:08:07;;;;;;;10.00;8.07;;;;;;;;;;5137190;27;20455;-61
2023/02/13 06:10:34;;;;;;;7.93;6.73;;;;;;;;;;5137108;27;20468;-61
2023/02/13 06:13:01;;;;;;;7.27;6.27;;;;;;;;;;5137146;27;20524;-60
2023/02/13 06:15:28;;;;;;;8.03;6.27;;;;;;;;;;5136866;27;20490;-60
2023/02/13 06:17:55;;;;;;;6.13;5.00;;;;;;;;;;5136757;27;20958;-61
2023/02/13 06:20:22;;;;;;;6.80;6.10;;;;;;;;;;5136945;27;20485;-61
2023/02/13 06:22:51;;;;;;;7.77;6.63;;;;;;;;;;5136903;27;20444;-61
2023/02/13 06:25:18;;;;;;;7.37;6.53;;;;;;;;;;5136778;27;20445;-60
2023/02/13 06:27:45;;;;;;;8.20;6.73;;;;;;;;;;5136666;27;20441;-60
2023/02/13 06:30:12;;;;;;;7.20;6.20;;;;;;;;;;5136526;27;20459;-60
2023/02/13 06:32:39;;;;;;;11.47;9.80;;;;;;;;;;5136588;27;20433;-60
2023/02/13 06:35:07;;;;;;;9.90;7.93;;;;;;;;;;5136280;27;20449;-60
2023/02/13 06:37:34;;;;;;;7.90;7.10;;;;;;;;;;5136311;27;20441;-60
2023/02/13 06:40:02;;;;;;;8.30;7.23;;;;;;;;;;5136143;27;20556;-61
2023/02/13 06:42:29;;;;;;;7.20;6.47;;;;;;;;;;5136313;27;20452;-61
2023/02/13 06:44:56;;;;;;;9.27;6.63;;;;;;;;;;5135669;27;20472;-60
2023/02/13 06:47:23;;;;;;;7.83;6.67;;;;;;;;;;5136083;27;20445;-60
2023/02/13 06:49:50;;;;;;;7.77;6.97;;;;;;;;;;5136138;27;20445;-60
2023/02/13 06:52:17;;;;;;;6.73;6.00;;;;;;;;;;5136099;27;20451;-61
2023/02/13 06:54:44;;;;;;;8.60;7.70;;;;;;;;;;5135922;27;20464;-61
2023/02/13 06:57:12;;;;;;;8.27;6.90;;;;;;;;;;5135931;27;20889;-60
2023/02/13 06:59:39;;;;;;;8.73;7.30;;;;;;;;;;5135558;27;20499;-61
2023/02/13 07:02:06;;;;;;;9.70;7.73;;;;;;;;;;5135985;27;20540;-61
2023/02/13 07:04:33;;;;;;;10.20;7.10;;;;;;;;;;5135913;27;20448;-60
2023/02/13 07:07:00;;;;;;;8.53;7.63;;;;;;;;;;5135834;27;20753;-61
2023/02/13 07:09:27;;;;;;;10.50;7.93;;;;;;;;;;5135656;27;20536;-61
2023/02/13 07:11:54;;;;;;;9.83;8.60;;;;;;;;;;5135631;27;20445;-60
2023/02/13 07:14:22;;;;;;;10.27;8.63;;;;;;;;;;5134484;27;20535;-61
2023/02/13 07:16:49;;;;;;;9.23;7.73;;;;;;;;;;5135684;27;20448;-61
2023/02/13 07:19:16;;;;;;;10.40;7.47;;;;;;;;;;5135413;27;21004;-60
2023/02/13 07:21:43;;;;;;;7.60;6.80;;;;;;;;;;5135540;27;20481;-61
2023/02/13 07:24:10;;;;;;;7.23;6.53;;;;;;;;;;5135536;27;20445;-61
2023/02/13 07:26:37;;;;;;;8.20;7.30;;;;;;;;;;5135319;27;20451;-61
2023/02/13 07:29:05;;;;;;;6.97;6.27;;;;;;;;;;5135724;27;20808;-61
2023/02/13 07:31:33;;;;;;;7.10;6.40;;;;;;;;;;5135522;27;20548;-60
2023/02/13 07:34:00;;;;;;;6.43;5.78;;;;;;;;;;5135182;27;20820;-61
2023/02/13 07:36:27;;;;;;;8.88;7.93;;;;;;;;;;5134608;27;20964;-59
2023/02/13 07:38:54;;;;;;;8.40;6.77;;;;;;;;;;5135134;27;20202;-59
2023/02/13 07:41:24;;;;;;;7.50;6.80;;;;;;;;;;5135100;27;20570;-60
2023/02/13 07:43:51;;;;;;;13.40;10.70;;;;;;;;;;5135240;27;20449;-59
2023/02/13 07:46:18;;;;;;;13.70;11.03;;;;;;;;;;5134952;27;20486;-59
2023/02/13 07:48:47;;;;;;;9.97;8.40;;;;;;;;;;5131581;27;20522;-59
2023/02/13 07:51:15;;;;;;;9.30;7.90;;;;;;;;;;5123309;27;20482;-59
2023/02/13 07:53:42;;;;;;;8.47;7.43;;;;;;;;;;5123270;27;20806;-59
2023/02/13 07:56:09;;;;;;;9.10;7.27;;;;;;;;;;5123807;27;20441;-59
2023/02/13 07:58:36;;;;;;;7.20;6.50;;;;;;;;;;5125165;27;20878;-59
2023/02/13 08:01:06;;;;;;;7.83;7.03;;;;;;;;;;5123297;27;20474;-59
2023/02/13 08:03:33;;;;;;;7.33;6.60;;;;;;;;;;5125621;27;20453;-59
2023/02/13 08:06:01;;;;;;;7.17;6.47;;;;;;;;;;5122572;27;20446;-59
2023/02/13 08:08:28;;;;;;;8.43;6.30;;;;;;;;;;5123920;27;20446;-59
2023/02/13 08:13:40;;;;;;;9.37;7.30;;;;;;;;;;5122467;27;20552;-59
2023/02/13 08:16:07;;;;;;;10.03;6.80;;;;;;;;;;5123802;27;20441;-59
2023/02/13 08:18:34;;;;;;;7.60;6.00;;;;;;;;;;5121760;27;20464;-59
2023/02/13 08:21:03;;;;;;;8.33;7.13;;;;;;;;;;5114003;28;20914;-60
2023/02/13 08:23:30;;;;;;;7.83;6.50;;;;;;;;;;5113845;28;20450;-61
2023/02/13 08:25:59;;;;;;;8.00;7.20;;;;;;;;;;5113228;28;20959;-58
2023/02/13 08:28:26;;;;;;;7.20;6.50;;;;;;;;;;5113596;28;20453;-59
2023/02/13 08:30:53;;;;;;;7.67;6.90;;;;;;;;;;5113785;28;20544;-61
2023/02/13 08:33:20;;;;;;;9.17;6.93;;;;;;;;;;5113269;28;20453;-61
2023/02/13 08:35:47;;;;;;;10.53;8.80;;;;;;;;;;5113270;28;20445;-62
2023/02/13 08:38:15;;;;;;;8.10;7.20;;;;;;;;;;5113127;28;20810;-64
2023/02/13 08:40:42;;;;;;;8.10;6.63;;;;;;;;;;5113239;28;20509;-57
2023/02/13 08:43:09;;;;;;;8.77;7.67;;;;;;;;;;5113455;28;20827;-62
2023/02/13 08:45:36;;;;;;;9.97;8.30;;;;;;;;;;5112993;28;20557;-62
2023/02/13 08:48:04;;;;;;;9.27;8.20;;;;;;;;;;5113521;28;20457;-61
2023/02/13 08:50:30;;;;;;;12.33;11.13;;;;;;;;;;5113325;28;20541;-64
2023/02/13 08:52:58;;;;;;;10.20;9.20;;;;;;;;;;5113283;28;20452;-60
2023/02/13 08:55:27;;;;;;;11.17;10.07;;;;;;;;;;5113126;28;20929;-58
2023/02/13 08:57:54;;;;;;;11.70;10.67;;;;;;;;;;5113211;28;20481;-64
2023/02/13 09:00:21;;;;;;;10.63;9.10;;;;;;;;;;5112895;28;20480;-64
2023/02/13 09:02:48;;;;;;;9.93;8.10;;;;;;;;;;5113305;28;20449;-61
2023/02/13 09:05:15;;;;;;;8.60;7.80;;;;;;;;;;5113249;28;20537;-61
2023/02/13 09:07:42;;;;;;;9.50;8.27;;;;;;;;;;5113144;28;20446;-61
2023/02/13 09:10:09;;;;;;;10.73;9.63;;;;;;;;;;5112546;28;20452;-61
2023/02/13 09:12:37;;;;;;;10.77;9.17;;;;;;;;;;5112889;28;20483;-60
2023/02/13 09:15:05;;;;;;;11.50;7.90;;;;;;;;;;5112934;28;20481;-60
2023/02/13 09:17:32;;;;;;;8.17;6.90;;;;;;;;;;5113039;28;20446;-59
2023/02/13 09:19:59;;;;;;;9.07;7.77;;;;;;;;;;5112901;28;20487;-60
2023/02/13 09:22:26;;;;;;;8.70;7.50;;;;;;;;;;5113018;28;20454;-63
2023/02/13 09:24:53;;;;;;;8.40;7.50;;;;;;;;;;5112805;28;20537;-60
2023/02/13 09:27:20;;;;;;;10.70;8.43;;;;;;;;;;5112919;28;20877;-61
2023/02/13 09:29:48;;;;;;;8.90;7.90;;;;;;;;;;5112934;28;21014;-61
2023/02/13 09:32:15;;;;;;;13.77;8.93;;;;;;;;;;5113056;28;20557;-60
2023/02/13 09:34:42;;;;;;;10.20;8.17;;;;;;;;;;5112717;28;20446;-62
2023/02/13 09:37:09;;;;;;;9.17;7.50;;;;;;;;;;5114016;28;20890;-61
2023/02/13 09:39:36;;;;;;;10.00;7.80;;;;;;;;;;5117025;28;20445;-61
2023/02/13 09:42:06;;;;;;;10.13;8.10;;;;;;;;;;5116879;28;20481;-63
2023/02/13 09:44:37;;;;;;;7.63;6.90;;;;;;;;;;5116883;28;20920;-60
2023/02/13 09:47:08;;;;;;;7.33;6.63;;;;;;;;;;5116758;28;20453;-62
2023/02/13 09:49:37;;;;;;;9.50;7.33;;;;;;;;;;5116975;28;20452;-61
2023/02/13 09:52:04;;;;;;;8.00;7.20;;;;;;;;;;5116622;28;20456;-60
2023/02/13 09:54:31;;;;;;;9.47;6.73;;;;;;;;;;5116434;28;20454;-62
2023/02/13 09:57:00;;;;;;;8.90;8.00;;;;;;;;;;5116726;28;20453;-61
2023/02/13 09:59:34;;;;;;;13.40;7.60;;;;;;;;;;5116565;28;20950;-62
2023/02/13 10:02:03;;;;;;;9.07;6.70;;;;;;;;;;5116536;28;20572;-63
2023/02/13 10:04:34;;;;;;;7.53;6.80;;;;;;;;;;5116015;28;20462;-64
2023/02/13 10:07:08;;;;;;;8.60;6.80;;;;;;;;;;5116520;28;20802;-64
2023/02/13 10:09:40;;;;;;;9.20;7.33;;;;;;;;;;5116642;28;20446;-62
2023/02/13 10:12:25;;;;;;;8.20;7.17;;;;;;;;;;5116457;28;20560;-60
2023/02/13 10:14:56;;;;;;;8.50;7.20;;;;;;;;;;5102872;28;20489;-59
2023/02/13 10:17:24;;;;;;;8.57;6.70;;;;;;;;;;5116298;28;20450;-61
2023/02/13 10:19:55;;;;;;;11.83;7.43;;;;;;;;;;5116227;28;20450;-63
2023/02/13 10:22:25;;;;;;;9.10;7.00;;;;;;;;;;5116384;28;20480;-60
2023/02/13 10:24:55;;;;;;;8.80;7.40;;;;;;;;;;5116108;28;20454;-61
2023/02/13 10:27:23;;;;;;;9.10;8.20;;;;;;;;;;5116151;28;20456;-60
2023/02/13 10:30:11;;;;;;;8.13;7.00;;;;;;;;;;5116153;28;20809;-61
2023/02/13 10:32:44;;;;;;;8.30;7.13;;;;;;;;;;5115997;28;20945;-60
2023/02/13 10:35:19;;;;;;;13.40;8.50;;;;;;;;;;5115728;28;20751;-61
2023/02/13 10:37:49;;;;;;;8.50;7.37;;;;;;;;;;5116007;28;20510;-61
2023/02/13 10:40:17;;;;;;;11.50;7.87;;;;;;;;;;5115838;28;20441;-60
2023/02/13 10:42:44;;;;;;;10.50;8.60;;;;;;;;;;5115791;28;20477;-61
2023/02/13 10:45:21;;;;;;;15.07;11.30;;;;;;;;;;5115557;28;20477;-61
2023/02/13 10:47:55;;;;;;;11.43;7.97;;;;;;;;;;5115210;28;20445;-62
2023/02/13 10:50:27;;;;;;;11.73;8.63;;;;;;;;;;5115644;28;20541;-61
2023/02/13 10:53:02;;;;;;;7.80;7.03;;;;;;;;;;5115451;28;20537;-61
2023/02/13 10:55:36;;;;;;;13.83;9.00;;;;;;;;;;5115355;28;20500;-62
2023/02/13 10:58:07;;;;;;;10.10;7.73;;;;;;;;;;5115541;28;20445;-63
2023/02/13 11:00:36;;;;;;;10.20;7.10;;;;;;;;;;5115586;28;20894;-61
2023/02/13 11:03:03;;;;;;;11.60;8.20;;;;;;;;;;5115421;28;20446;-62
2023/02/13 11:05:33;;;;;;;11.80;7.80;;;;;;;;;;5115559;28;20628;-60
2023/02/13 11:08:01;;;;;;;10.77;8.23;;;;;;;;;;5115539;28;20478;-61
2023/02/13 11:10:28;;;;;;;8.77;6.90;;;;;;;;;;5115423;28;20446;-60
2023/02/13 11:12:55;;;;;;;13.13;8.30;;;;;;;;;;5115186;28;20549;-60
2023/02/13 11:15:24;;;;;;;12.80;9.00;;;;;;;;;;5115093;28;20446;-61
2023/02/13 11:17:52;;;;;;;10.50;7.67;;;;;;;;;;5115053;28;20469;-61
2023/02/13 11:20:31;;;;;;;10.37;8.07;;;;;;;;;;5114930;28;20532;-61
2023/02/13 11:23:18;;;;;;;9.07;7.27;;;;;;;;;;5115248;28;20460;-60
2023/02/13 11:25:54;;;;;;;9.07;7.23;;;;;;;;;;5114803;28;20830;-63
2023/02/13 11:28:21;;;;;;;9.20;8.17;;;;;;;;;;5114971;28;20457;-57
2023/02/13 11:30:48;;;;;;;8.70;7.47;;;;;;;;;;5115070;28;20528;-60
2023/02/13 11:33:22;;;;;;;9.73;7.17;;;;;;;;;;5114767;28;20988;-60
2023/02/13 11:35:49;;;;;;;8.37;7.53;;;;;;;;;;5115020;28;20457;-61
2023/02/13 11:38:23;;;;;;;10.87;7.23;;;;;;;;;;5114785;28;21000;-58
2023/02/13 11:40:52;;;;;;;9.00;6.90;;;;;;;;;;5114521;28;20499;-60
2023/02/13 11:43:20;;;;;;;9.27;7.77;;;;;;;;;;5114764;28;20452;-60
2023/02/13 11:45:47;;;;;;;11.27;8.30;;;;;;;;;;5114412;28;20981;-60
2023/02/13 11:48:21;;;;;;;8.37;7.37;;;;;;;;;;5114142;28;20554;-59
2023/02/13 11:50:51;;;;;;;8.50;7.70;;;;;;;;;;5114484;28;20455;-61
2023/02/13 11:53:20;;;;;;;9.73;7.60;;;;;;;;;;5114234;28;20464;-61
2023/02/13 11:56:02;;;;;;;9.50;8.20;;;;;;;;;;5114166;28;20537;-61
2023/02/13 11:58:29;;;;;;;11.07;9.30;;;;;;;;;;5114341;28;20450;-61
2023/02/13 12:01:08;;;;;;;9.70;7.70;;;;;;;;;;5113290;28;20457;-60
2023/02/13 12:03:37;;;;;;;10.63;8.70;;;;;;;;;;5114056;28;20793;-61
2023/02/13 12:06:05;;;;;;;12.30;8.43;;;;;;;;;;5113823;28;20450;-61
2023/02/13 12:08:33;;;;;;;11.97;8.73;;;;;;;;;;5114077;28;20473;-61
2023/02/13 12:11:03;;;;;;;10.23;8.53;;;;;;;;;;5113722;28;20937;-61
2023/02/13 12:13:31;;;;;;;9.03;8.13;;;;;;;;;;5113757;28;20929;-60
2023/02/13 12:16:00;;;;;;;9.73;8.33;;;;;;;;;;5113660;28;20446;-61
2023/02/13 12:18:28;;;;;;;9.13;8.23;;;;;;;;;;5113976;28;20438;-62
2023/02/13 12:21:01;;;;;;;10.50;8.60;;;;;;;;;;5113813;28;20453;-61
2023/02/13 12:23:32;;;;;;;11.40;8.80;;;;;;;;;;5113848;28;20461;-61
2023/02/13 12:26:14;;;;;;;11.50;8.27;;;;;;;;;;5113904;28;20541;-62
2023/02/13 12:28:50;;;;;;;9.77;8.77;;;;;;;;;;5113733;28;20456;-63
2023/02/13 12:31:25;;;;;;;12.90;9.87;;;;;;;;;;5113929;28;20818;-63
2023/02/13 12:34:19;;;;;;;10.50;8.67;;;;;;;;;;5113719;28;20540;-61
2023/02/13 12:36:49;;;;;;;11.90;9.47;;;;;;;;;;5113858;28;20450;-60
2023/02/13 12:39:18;;;;;;;14.13;10.10;;;;;;;;;;5114126;28;20460;-60
2023/02/13 12:41:51;;;;;;;11.53;9.37;;;;;;;;;;5113913;28;20482;-62
2023/02/13 12:44:28;;;;;;;13.07;10.73;;;;;;;;;;5113624;28;20450;-62
2023/02/13 12:47:02;;;;;;;14.13;10.00;;;;;;;;;;5113934;28;20529;-62
2023/02/13 12:49:36;;;;;;;11.47;10.00;;;;;;;;;;5113860;28;20452;-61
2023/02/13 12:52:13;;;;;;;13.50;10.60;;;;;;;;;;5113837;28;20476;-61
2023/02/13 12:54:46;;;;;;;13.33;9.93;;;;;;;;;;5113739;28;20452;-59
2023/02/13 12:57:21;;;;;;;12.17;9.90;;;;;;;;;;5113517;28;20576;-59
2023/02/13 12:59:55;;;;;;;18.63;15.00;;;;;;;;;;5113441;28;20859;-62
2023/02/13 13:02:33;;;;;;;12.20;9.43;;;;;;;;;;5113549;28;20482;-59
2023/02/13 13:05:08;;;;;;;12.93;9.43;;;;;;;;;;5113469;28;20471;-59
2023/02/13 13:07:44;;;;;;;13.27;10.80;;;;;;;;;;5113449;28;20518;-59
2023/02/13 13:10:22;;;;;;;12.90;10.20;;;;;;;;;;5113346;28;20463;-60
2023/02/13 13:12:55;;;;;;;12.00;9.30;;;;;;;;;;5113434;27;20456;-60
2023/02/13 13:15:26;;;;;;;11.73;10.40;;;;;;;;;;5113373;28;20457;-59
2023/02/13 13:17:59;;;;;;;12.17;10.17;;;;;;;;;;5113101;28;20449;-59
2023/02/13 13:20:41;;;;;;;10.43;9.33;;;;;;;;;;5113688;28;20541;-60
2023/02/13 13:23:11;;;;;;;16.77;10.57;;;;;;;;;;5113188;28;20488;-59
2023/02/13 13:25:42;;;;;;;14.20;11.83;;;;;;;;;;5113361;28;20450;-58
2023/02/13 13:28:14;;;;;;;12.50;10.70;;;;;;;;;;5113220;28;20457;-59
2023/02/13 13:30:42;;;;;;;14.90;10.77;;;;;;;;;;5112703;28;20446;-60
2023/02/13 13:33:11;;;;;;;13.50;11.10;;;;;;;;;;5112715;28;20443;-61
2023/02/13 13:35:39;;;;;;;12.30;10.40;;;;;;;;;;5113226;28;20452;-59
2023/02/13 13:38:11;;;;;;;13.90;10.70;;;;;;;;;;5112952;28;20945;-59
2023/02/13 13:40:41;;;;;;;16.40;11.70;;;;;;;;;;5113152;28;20537;-60
2023/02/13 13:43:17;;;;;;;12.37;9.80;;;;;;;;;;5112709;28;20840;-60
2023/02/13 13:45:46;;;;;;;14.53;10.40;;;;;;;;;;5112630;28;20473;-59
2023/02/13 13:48:22;;;;;;;13.97;10.80;;;;;;;;;;5112946;28;20453;-58
2023/02/13 13:50:49;;;;;;;11.63;10.37;;;;;;;;;;5113083;28;20553;-60
2023/02/13 13:53:18;;;;;;;14.47;10.20;;;;;;;;;;5116118;28;20974;-60
2023/02/13 13:56:08;;;;;;;15.60;10.80;;;;;;;;;;5126367;28;20452;-60
2023/02/13 13:58:38;;;;;;;16.63;12.63;;;;;;;;;;5113204;28;20449;-60
2023/02/13 14:01:24;;;;;;;16.92;13.07;;;;;;;;;;5110116;28;20534;-58
2023/02/13 14:03:52;;;;;;;16.13;11.57;;;;;;;;;;5111535;28;20672;-58
2023/02/13 14:06:20;;;;;;;14.30;10.60;;;;;;;;;;5119931;27;20458;-60
2023/02/13 14:08:55;;;;;;;14.30;11.77;;;;;;;;;;5122841;28;20559;-66
2023/02/13 14:11:26;;;;;;;13.87;10.17;;;;;;;;;;5118446;28;20776;-59
2023/02/13 14:13:54;;;;;;;11.47;9.97;;;;;;;;;;5114123;27;20476;-58
2023/02/13 14:16:36;;;;;;;13.98;12.02;;;;;;;;;;5128659;27;20446;-59
2023/02/13 14:19:04;;;;;;;16.00;12.30;;;;;;;;;;5120078;28;20196;-57
2023/02/13 14:21:31;;;;;;;14.43;11.80;;;;;;;;;;5118774;27;20458;-61
2023/02/13 14:24:02;;;;;;;16.30;11.53;;;;;;;;;;5130121;27;20460;-60
2023/02/13 14:26:34;;;;;;;16.87;11.57;;;;;;;;;;5120467;27;20485;-61
2023/02/13 14:29:19;;;;;;;14.63;11.13;;;;;;;;;;5117725;27;20458;-56
2023/02/13 14:31:57;;;;;;;14.50;10.80;;;;;;;;;;5119689;27;20800;-54
2023/02/13 14:34:27;;;;;;;14.40;11.47;;;;;;;;;;5116917;27;20454;-61
2023/02/13 14:37:02;;;;;;;13.67;9.90;;;;;;;;;;5123650;27;20456;-60
2023/02/13 14:39:30;;;;;;;14.90;10.57;;;;;;;;;;5118988;27;20510;-62
2023/02/13 14:41:58;;;;;;;15.13;12.23;;;;;;;;;;5113638;27;20458;-61
2023/02/13 14:44:27;;;;;;;15.83;11.60;;;;;;;;;;5115819;28;20189;-61
2023/02/13 14:46:56;;;;;;;12.50;10.10;;;;;;;;;;5116207;28;21000;-61
2023/02/13 14:49:25;;;;;;;18.83;11.57;;;;;;;;;;5115784;28;20448;-61
2023/02/13 14:51:54;;;;;;;13.70;11.27;;;;;;;;;;5116038;28;20444;-61
2023/02/13 14:54:26;;;;;;;14.03;10.63;;;;;;;;;;5115747;28;20498;-61
2023/02/13 14:56:54;;;;;;;14.37;10.60;;;;;;;;;;5116044;28;20857;-61
2023/02/13 14:59:23;;;;;;;18.00;11.90;;;;;;;;;;5115936;28;20870;-61
2023/02/13 15:01:51;;;;;;;15.40;11.60;;;;;;;;;;5115619;28;21009;-61
2023/02/13 15:04:23;;;;;;;15.90;10.73;;;;;;;;;;5115615;28;20541;-61
2023/02/13 15:06:50;;;;;;;14.33;11.43;;;;;;;;;;5115704;28;20449;-61
2023/02/13 15:09:23;;;;;;;15.13;10.93;;;;;;;;;;5115540;28;20438;-61
2023/02/13 15:11:50;;;;;;;14.97;11.50;;;;;;;;;;5113911;28;20472;-61
2023/02/13 15:14:22;;;;;;;16.97;12.47;;;;;;;;;;5115584;28;20452;-61
2023/02/13 15:16:52;;;;;;;16.17;11.50;;;;;;;;;;5115498;28;20450;-61
2023/02/13 15:19:21;;;;;;;17.37;11.27;;;;;;;;;;5115447;28;20454;-61
2023/02/13 15:21:51;;;;;;;15.70;11.13;;;;;;;;;;5115497;28;20450;-60
2023/02/13 15:24:18;;;;;;;14.87;11.30;;;;;;;;;;5115434;28;20454;-61
2023/02/13 15:26:50;;;;;;;14.90;11.43;;;;;;;;;;5115378;28;20450;-61